sensor_id;sensor_type;location;lat;lon;timestamp;P1;P2;P0
45312;PMS7003;68267;51.540;5.854;2023-06-10T00:01:17;9.97;12.33;12.11
45312;PMS7003;68267;51.540;5.854;2023-06-10T00:14:36;9.25;11.67;11.45
45312;PMS7003;68267;51.540;5.854;2023-06-10T00:27:56;9.01;11.45;11.35
45312;PMS7003;68267;51.540;5.854;2023-06-10T00:41:16;9.97;12.33;12.33
45312;PMS7003;68267;51.540;5.854;2023-06-10T00:54:35;10.69;12.98;12.87
45312;PMS7003;68267;51.540;5.854;2023-06-10T01:07:55;11.65;13.85;13.53
45312;PMS7003;68267;51.540;5.854;2023-06-10T01:21:15;12.25;14.4;14.18
45312;PMS7003;68267;51.540;5.854;2023-06-10T01:34:34;12.97;15.05;14.62
45312;PMS7003;68267;51.540;5.854;2023-06-10T01:47:54;15.97;17.78;16.9
45312;PMS7003;68267;51.540;5.854;2023-06-10T02:01:13;17.05;17.78;17.45
45312;PMS7003;68267;51.540;5.854;2023-06-10T02:14:33;16.69;18.43;17.99
45312;PMS7003;68267;51.540;5.854;2023-06-10T02:27:53;16.81;18.54;18.32
45312;PMS7003;68267;51.540;5.854;2023-06-10T02:41:12;17.89;19.52;19.19
45312;PMS7003;68267;51.540;5.854;2023-06-10T02:54:32;16.69;18.43;17.99
45312;PMS7003;68267;51.540;5.854;2023-06-10T03:07:52;17.05;18.76;18.43
45312;PMS7003;68267;51.540;5.854;2023-06-10T03:21:11;19.21;20.17;19.52
45312;PMS7003;68267;51.540;5.854;2023-06-10T03:34:31;19.45;20.28;19.85
45312;PMS7003;68267;51.540;5.854;2023-06-10T03:47:50;20.41;21.81;21.05
45312;PMS7003;68267;51.540;5.854;2023-06-10T04:01:10;20.89;22.25;21.81
45312;PMS7003;68267;51.540;5.854;2023-06-10T04:14:29;22.09;23.34;22.14
45312;PMS7003;68267;51.540;5.854;2023-06-10T04:27:49;23.17;23.01;21.16
45312;PMS7003;68267;51.540;5.854;2023-06-10T04:41:09;22.57;20.83;19.41
45312;PMS7003;68267;51.540;5.854;2023-06-10T04:54:28;18.61;18.98;17.67
45312;PMS7003;68267;51.540;5.854;2023-06-10T05:07:48;15.73;17.23;16.03
45312;PMS7003;68267;51.540;5.854;2023-06-10T05:21:08;15.49;15.92;14.72
45312;PMS7003;68267;51.540;5.854;2023-06-10T05:34:27;12.49;14.62;13.85
45312;PMS7003;68267;51.540;5.854;2023-06-10T05:47:47;12.13;13.53;12.98
45312;PMS7003;68267;51.540;5.854;2023-06-10T06:01:06;10.33;12.65;12.0
45312;PMS7003;68267;51.540;5.854;2023-06-10T06:14:26;9.97;12.33;11.45
45312;PMS7003;68267;51.540;5.854;2023-06-10T06:27:46;13.81;11.35;10.8
45312;PMS7003;68267;51.540;5.854;2023-06-10T06:41:05;8.53;11.02;10.36
45312;PMS7003;68267;51.540;5.854;2023-06-10T06:54:25;7.45;9.49;9.27
45312;PMS7003;68267;51.540;5.854;2023-06-10T07:07:45;6.25;8.95;8.29
45312;PMS7003;68267;51.540;5.854;2023-06-10T07:21:04;5.53;8.29;7.97
45312;PMS7003;68267;51.540;5.854;2023-06-10T07:34:24;5.77;7.75;7.31
45312;PMS7003;68267;51.540;5.854;2023-06-10T07:47:44;5.05;7.86;7.31
45312;PMS7003;68267;51.540;5.854;2023-06-10T08:01:03;8.89;8.18;7.31
45312;PMS7003;68267;51.540;5.854;2023-06-10T08:14:23;5.77;8.51;6.99
45312;PMS7003;68267;51.540;5.854;2023-06-10T08:27:43;24.25;7.75;6.88
45312;PMS7003;68267;51.540;5.854;2023-06-10T08:41:02;6.25;7.64;6.77
45312;PMS7003;68267;51.540;5.854;2023-06-10T08:54:22;4.33;7.2;6.77
45312;PMS7003;68267;51.540;5.854;2023-06-10T09:07:41;10.33;9.49;7.86
45312;PMS7003;68267;51.540;5.854;2023-06-10T09:21:01;7.33;8.62;7.42
45312;PMS7003;68267;51.540;5.854;2023-06-10T09:34:21;5.41;8.18;7.31
45312;PMS7003;68267;51.540;5.854;2023-06-10T09:47:40;36.26;12.33;8.08
45312;PMS7003;68267;51.540;5.854;2023-06-10T10:01:00;6.85;8.29;7.64
45312;PMS7003;68267;51.540;5.854;2023-06-10T10:14:20;5.53;8.29;7.97
45312;PMS7003;68267;51.540;5.854;2023-06-10T10:27:39;7.45;8.84;8.29
45312;PMS7003;68267;51.540;5.854;2023-06-10T10:40:59;7.33;8.51;7.97
45312;PMS7003;68267;51.540;5.854;2023-06-10T10:54:18;6.85;8.18;7.64
45312;PMS7003;68267;51.540;5.854;2023-06-10T11:07:38;6.85;9.49;8.18
45312;PMS7003;68267;51.540;5.854;2023-06-10T11:20:58;7.09;8.08;7.86
45312;PMS7003;68267;51.540;5.854;2023-06-10T11:34:17;5.29;8.08;7.53
45312;PMS7003;68267;51.540;5.854;2023-06-10T11:47:37;5.65;8.4;7.64
45312;PMS7003;68267;51.540;5.854;2023-06-10T12:00:56;5.77;8.51;8.18
45312;PMS7003;68267;51.540;5.854;2023-06-10T12:14:16;6.13;8.08;7.86
45312;PMS7003;68267;51.540;5.854;2023-06-10T12:27:36;7.33;8.51;8.18
45312;PMS7003;68267;51.540;5.854;2023-06-10T12:40:55;6.01;8.73;8.29
45312;PMS7003;68267;51.540;5.854;2023-06-10T12:54:15;6.61;9.27;8.51
45312;PMS7003;68267;51.540;5.854;2023-06-10T13:07:35;14.89;8.84;8.4
45312;PMS7003;68267;51.540;5.854;2023-06-10T13:20:54;7.57;8.62;8.08
45312;PMS7003;68267;51.540;5.854;2023-06-10T13:34:14;6.13;8.84;8.4
45312;PMS7003;68267;51.540;5.854;2023-06-10T13:47:34;5.29;8.08;7.86
45312;PMS7003;68267;51.540;5.854;2023-06-10T14:00:53;6.01;8.08;7.64
45312;PMS7003;68267;51.540;5.854;2023-06-10T14:14:13;8.05;8.18;8.08
45312;PMS7003;68267;51.540;5.854;2023-06-10T14:27:32;11.53;10.15;8.62
45312;PMS7003;68267;51.540;5.854;2023-06-10T14:40:52;5.53;8.29;8.08
45312;PMS7003;68267;51.540;5.854;2023-06-10T14:54:12;6.01;8.73;8.4
45312;PMS7003;68267;51.540;5.854;2023-06-10T15:07:31;6.49;9.17;8.18
45312;PMS7003;68267;51.540;5.854;2023-06-10T15:20:51;9.97;9.6;8.62
45312;PMS7003;68267;51.540;5.854;2023-06-10T15:34:11;5.77;8.51;8.4
45312;PMS7003;68267;51.540;5.854;2023-06-10T15:47:30;6.73;9.38;8.51
45312;PMS7003;68267;51.540;5.854;2023-06-10T16:00:50;6.49;9.17;8.73
45312;PMS7003;68267;51.540;5.854;2023-06-10T16:14:10;8.53;10.36;8.84
45312;PMS7003;68267;51.540;5.854;2023-06-10T16:27:29;8.77;9.71;8.73
45312;PMS7003;68267;51.540;5.854;2023-06-10T16:40:49;7.33;9.93;8.62
45312;PMS7003;68267;51.540;5.854;2023-06-10T16:54:08;6.37;9.06;8.62
45312;PMS7003;68267;51.540;5.854;2023-06-10T17:07:28;5.65;8.4;8.18
45312;PMS7003;68267;51.540;5.854;2023-06-10T17:20:48;8.05;8.95;8.29
45312;PMS7003;68267;51.540;5.854;2023-06-10T17:34:07;5.77;8.51;8.4
45312;PMS7003;68267;51.540;5.854;2023-06-10T17:47:27;6.85;9.49;8.62
45312;PMS7003;68267;51.540;5.854;2023-06-10T18:00:46;6.25;8.95;8.18
45312;PMS7003;68267;51.540;5.854;2023-06-10T18:14:06;8.29;9.49;8.51
45312;PMS7003;68267;51.540;5.854;2023-06-10T18:27:26;7.57;8.51;8.18
45312;PMS7003;68267;51.540;5.854;2023-06-10T18:40:45;9.73;8.51;8.29
45312;PMS7003;68267;51.540;5.854;2023-06-10T18:54:05;7.93;8.4;8.18
45312;PMS7003;68267;51.540;5.854;2023-06-10T19:07:25;6.13;8.84;8.73
45312;PMS7003;68267;51.540;5.854;2023-06-10T19:20:44;6.25;8.95;8.4
45312;PMS7003;68267;51.540;5.854;2023-06-10T19:34:04;6.85;9.49;8.84
45312;PMS7003;68267;51.540;5.854;2023-06-10T19:47:23;9.37;8.73;8.62
45312;PMS7003;68267;51.540;5.854;2023-06-10T20:00:43;6.61;9.27;8.84
45312;PMS7003;68267;51.540;5.854;2023-06-10T20:14:03;6.37;9.06;8.95
45312;PMS7003;68267;51.540;5.854;2023-06-10T20:27:22;6.61;9.27;8.95
45312;PMS7003;68267;51.540;5.854;2023-06-10T20:40:42;6.25;8.95;8.95
45312;PMS7003;68267;51.540;5.854;2023-06-10T20:54:02;9.85;10.47;9.71
45312;PMS7003;68267;51.540;5.854;2023-06-10T21:07:21;10.21;11.13;10.15
45312;PMS7003;68267;51.540;5.854;2023-06-10T21:20:41;8.17;10.69;10.36
45312;PMS7003;68267;51.540;5.854;2023-06-10T21:34:00;8.05;10.58;10.26
45312;PMS7003;68267;51.540;5.854;2023-06-10T21:47:20;9.49;11.89;11.56
45312;PMS7003;68267;51.540;5.854;2023-06-10T22:00:40;10.57;12.87;12.33
45312;PMS7003;68267;51.540;5.854;2023-06-10T22:13:59;9.97;12.33;11.67
45312;PMS7003;68267;51.540;5.854;2023-06-10T22:40:39;10.81;13.09;12.65
45312;PMS7003;68267;51.540;5.854;2023-06-10T22:53:58;11.17;13.42;12.65
45312;PMS7003;68267;51.540;5.854;2023-06-10T23:07:18;12.61;12.98;12.65
45312;PMS7003;68267;51.540;5.854;2023-06-10T23:20:38;12.61;13.96;13.53
45312;PMS7003;68267;51.540;5.854;2023-06-10T23:33:57;13.21;13.96;13.53
45312;PMS7003;68267;51.540;5.854;2023-06-10T23:47:17;12.61;14.72;14.29
